sensor_id;sensor_type;location;lat;lon;timestamp;temperature;humidity
52024;DHT22;38038;45.922;13.604;2022-09-09T10:45:27;21.00;99.90
52024;DHT22;38038;45.922;13.604;2022-09-09T10:50:45;21.50;99.90
52024;DHT22;38038;45.922;13.604;2022-09-09T10:55:53;21.70;99.90
52024;DHT22;38038;45.922;13.604;2022-09-09T10:58:30;21.80;99.90
52024;DHT22;38038;45.922;13.604;2022-09-09T11:01:06;22.00;99.90
52024;DHT22;38038;45.922;13.604;2022-09-09T11:03:38;22.10;99.90
52024;DHT22;38038;45.922;13.604;2022-09-09T11:06:12;22.20;99.90
52024;DHT22;38038;45.922;13.604;2022-09-09T11:08:39;22.00;99.90
52024;DHT22;38038;45.922;13.604;2022-09-09T11:11:12;22.00;99.90
52024;DHT22;38038;45.922;13.604;2022-09-09T11:16:30;22.60;99.90
52024;DHT22;38038;45.922;13.604;2022-09-09T11:24:54;22.90;99.90
52024;DHT22;38038;45.922;13.604;2022-09-09T11:27:31;22.70;99.90
52024;DHT22;38038;45.922;13.604;2022-09-09T11:30:19;22.80;99.90
52024;DHT22;38038;45.922;13.604;2022-09-09T11:38:28;23.00;99.90
52024;DHT22;38038;45.922;13.604;2022-09-09T11:41:01;23.30;99.90
52024;DHT22;38038;45.922;13.604;2022-09-09T11:43:54;23.60;99.90
52024;DHT22;38038;45.922;13.604;2022-09-09T11:46:31;23.70;99.90
52024;DHT22;38038;45.922;13.604;2022-09-09T11:49:03;23.90;99.90
52024;DHT22;38038;45.922;13.604;2022-09-09T11:51:30;24.30;99.90
52024;DHT22;38038;45.922;13.604;2022-09-09T11:54:28;24.10;99.90
52024;DHT22;38038;45.922;13.604;2022-09-09T11:56:54;24.20;99.90
52024;DHT22;38038;45.922;13.604;2022-09-09T12:01:53;24.30;99.90
52024;DHT22;38038;45.922;13.604;2022-09-09T12:04:36;24.40;99.90
52024;DHT22;38038;45.922;13.604;2022-09-09T12:14:54;24.30;99.90
52024;DHT22;38038;45.922;13.604;2022-09-09T12:17:20;24.40;99.90
52024;DHT22;38038;45.922;13.604;2022-09-09T12:19:48;24.40;99.90
52024;DHT22;38038;45.922;13.604;2022-09-09T12:22:41;24.20;99.90
52024;DHT22;38038;45.922;13.604;2022-09-09T12:31:16;24.60;99.90
52024;DHT22;38038;45.922;13.604;2022-09-09T12:33:45;24.40;99.90
52024;DHT22;38038;45.922;13.604;2022-09-09T12:36:24;24.50;99.90
52024;DHT22;38038;45.922;13.604;2022-09-09T12:38:53;24.60;99.90
52024;DHT22;38038;45.922;13.604;2022-09-09T12:41:25;24.80;99.90
52024;DHT22;38038;45.922;13.604;2022-09-09T12:44:06;24.70;99.90
52024;DHT22;38038;45.922;13.604;2022-09-09T12:46:43;24.70;99.90
52024;DHT22;38038;45.922;13.604;2022-09-09T12:52:02;24.80;99.90
52024;DHT22;38038;45.922;13.604;2022-09-09T12:54:28;24.90;99.90
52024;DHT22;38038;45.922;13.604;2022-09-09T12:56:54;25.00;99.90
52024;DHT22;38038;45.922;13.604;2022-09-09T12:59:46;25.00;99.90
52024;DHT22;38038;45.922;13.604;2022-09-09T13:02:25;24.80;99.90
52024;DHT22;38038;45.922;13.604;2022-09-09T13:04:52;24.70;99.90
52024;DHT22;38038;45.922;13.604;2022-09-09T13:07:19;24.80;99.90
52024;DHT22;38038;45.922;13.604;2022-09-09T13:09:46;24.70;99.90
52024;DHT22;38038;45.922;13.604;2022-09-09T13:12:21;24.90;99.90
52024;DHT22;38038;45.922;13.604;2022-09-09T13:14:50;25.00;99.90
52024;DHT22;38038;45.922;13.604;2022-09-09T13:17:20;24.80;99.90
52024;DHT22;38038;45.922;13.604;2022-09-09T13:19:46;24.90;99.90
52024;DHT22;38038;45.922;13.604;2022-09-09T13:22:14;25.00;99.90
52024;DHT22;38038;45.922;13.604;2022-09-09T13:24:44;25.10;99.90
52024;DHT22;38038;45.922;13.604;2022-09-09T13:27:31;25.10;99.90
52024;DHT22;38038;45.922;13.604;2022-09-09T13:29:57;25.00;99.90
52024;DHT22;38038;45.922;13.604;2022-09-09T13:32:24;25.10;99.90
52024;DHT22;38038;45.922;13.604;2022-09-09T13:34:54;25.10;99.90
52024;DHT22;38038;45.922;13.604;2022-09-09T13:37:40;25.20;99.90
52024;DHT22;38038;45.922;13.604;2022-09-09T13:40:15;25.00;99.90
52024;DHT22;38038;45.922;13.604;2022-09-09T13:42:42;24.90;99.90
52024;DHT22;38038;45.922;13.604;2022-09-09T13:45:19;24.80;99.90
52024;DHT22;38038;45.922;13.604;2022-09-09T13:47:46;24.60;99.90
52024;DHT22;38038;45.922;13.604;2022-09-09T13:50:27;24.50;99.90
52024;DHT22;38038;45.922;13.604;2022-09-09T13:53:02;24.50;99.90
52024;DHT22;38038;45.922;13.604;2022-09-09T13:55:29;24.40;99.90
52024;DHT22;38038;45.922;13.604;2022-09-09T13:57:57;24.50;99.90
52024;DHT22;38038;45.922;13.604;2022-09-09T14:00:24;24.40;99.90
52024;DHT22;38038;45.922;13.604;2022-09-09T14:02:50;24.30;99.90
52024;DHT22;38038;45.922;13.604;2022-09-09T14:05:17;24.30;99.90
52024;DHT22;38038;45.922;13.604;2022-09-09T14:07:43;24.20;99.90
52024;DHT22;38038;45.922;13.604;2022-09-09T14:10:10;24.20;99.90
52024;DHT22;38038;45.922;13.604;2022-09-09T14:12:36;24.20;99.90
52024;DHT22;38038;45.922;13.604;2022-09-09T14:15:03;24.30;99.90
52024;DHT22;38038;45.922;13.604;2022-09-09T14:17:29;24.30;99.90
52024;DHT22;38038;45.922;13.604;2022-09-09T14:19:55;24.40;99.90
52024;DHT22;38038;45.922;13.604;2022-09-09T14:22:22;24.40;99.90
52024;DHT22;38038;45.922;13.604;2022-09-09T14:24:48;24.30;99.90
52024;DHT22;38038;45.922;13.604;2022-09-09T14:27:14;24.30;99.90
52024;DHT22;38038;45.922;13.604;2022-09-09T14:29:40;24.30;99.90
52024;DHT22;38038;45.922;13.604;2022-09-09T14:32:06;24.30;99.90
52024;DHT22;38038;45.922;13.604;2022-09-09T14:34:32;24.30;99.90
52024;DHT22;38038;45.922;13.604;2022-09-09T14:37:00;24.30;99.90
52024;DHT22;38038;45.922;13.604;2022-09-09T14:39:26;24.40;99.90
52024;DHT22;38038;45.922;13.604;2022-09-09T14:41:52;24.50;99.90
52024;DHT22;38038;45.922;13.604;2022-09-09T14:44:17;24.50;99.90
52024;DHT22;38038;45.922;13.604;2022-09-09T14:46:44;24.20;99.90
52024;DHT22;38038;45.922;13.604;2022-09-09T14:49:10;23.50;99.90
52024;DHT22;38038;45.922;13.604;2022-09-09T14:51:36;23.40;99.90
52024;DHT22;38038;45.922;13.604;2022-09-09T14:54:02;23.20;99.90
52024;DHT22;38038;45.922;13.604;2022-09-09T14:56:30;23.20;99.90
52024;DHT22;38038;45.922;13.604;2022-09-09T14:58:58;23.10;99.90
52024;DHT22;38038;45.922;13.604;2022-09-09T15:01:25;23.00;99.90
52024;DHT22;38038;45.922;13.604;2022-09-09T15:03:58;22.70;99.90
52024;DHT22;38038;45.922;13.604;2022-09-09T15:06:25;22.40;99.90
52024;DHT22;38038;45.922;13.604;2022-09-09T15:08:52;22.00;99.90
52024;DHT22;38038;45.922;13.604;2022-09-09T15:11:19;21.80;99.90
52024;DHT22;38038;45.922;13.604;2022-09-09T15:13:45;21.70;99.90
52024;DHT22;38038;45.922;13.604;2022-09-09T15:16:17;21.50;99.90
52024;DHT22;38038;45.922;13.604;2022-09-09T15:18:44;21.20;99.90
52024;DHT22;38038;45.922;13.604;2022-09-09T15:21:21;20.90;99.90
52024;DHT22;38038;45.922;13.604;2022-09-09T15:23:48;20.80;99.90
52024;DHT22;38038;45.922;13.604;2022-09-09T15:26:15;20.80;99.90
52024;DHT22;38038;45.922;13.604;2022-09-09T15:28:41;20.70;99.90
52024;DHT22;38038;45.922;13.604;2022-09-09T15:31:26;20.70;99.90
52024;DHT22;38038;45.922;13.604;2022-09-09T15:33:58;20.80;99.90
52024;DHT22;38038;45.922;13.604;2022-09-09T15:36:28;20.70;99.90
52024;DHT22;38038;45.922;13.604;2022-09-09T15:38:55;20.60;99.90
52024;DHT22;38038;45.922;13.604;2022-09-09T15:41:22;20.60;99.90
52024;DHT22;38038;45.922;13.604;2022-09-09T15:43:50;20.60;99.90
52024;DHT22;38038;45.922;13.604;2022-09-09T15:46:32;20.50;99.90
52024;DHT22;38038;45.922;13.604;2022-09-09T15:51:32;20.50;99.90
52024;DHT22;38038;45.922;13.604;2022-09-09T15:53:59;20.40;99.90
52024;DHT22;38038;45.922;13.604;2022-09-09T15:56:27;20.30;99.90
52024;DHT22;38038;45.922;13.604;2022-09-09T15:58:54;20.20;99.90
52024;DHT22;38038;45.922;13.604;2022-09-09T16:01:20;20.00;99.90
52024;DHT22;38038;45.922;13.604;2022-09-09T16:03:46;19.90;99.90
52024;DHT22;38038;45.922;13.604;2022-09-09T16:06:17;20.00;99.90
52024;DHT22;38038;45.922;13.604;2022-09-09T16:08:44;19.90;99.90
52024;DHT22;38038;45.922;13.604;2022-09-09T16:11:19;20.00;99.90
52024;DHT22;38038;45.922;13.604;2022-09-09T16:13:49;20.00;99.90
52024;DHT22;38038;45.922;13.604;2022-09-09T16:16:16;19.80;99.90
52024;DHT22;38038;45.922;13.604;2022-09-09T16:18:50;19.90;99.90
52024;DHT22;38038;45.922;13.604;2022-09-09T16:21:21;20.00;99.90
52024;DHT22;38038;45.922;13.604;2022-09-09T16:23:48;20.10;99.90
52024;DHT22;38038;45.922;13.604;2022-09-09T16:26:15;20.20;99.90
52024;DHT22;38038;45.922;13.604;2022-09-09T16:28:42;20.30;99.90
52024;DHT22;38038;45.922;13.604;2022-09-09T16:31:10;20.30;99.90
52024;DHT22;38038;45.922;13.604;2022-09-09T16:33:36;20.40;99.90
52024;DHT22;38038;45.922;13.604;2022-09-09T16:36:06;20.40;99.90
52024;DHT22;38038;45.922;13.604;2022-09-09T16:38:32;20.30;99.90
52024;DHT22;38038;45.922;13.604;2022-09-09T16:40:59;20.10;99.90
52024;DHT22;38038;45.922;13.604;2022-09-09T16:43:25;20.00;99.90
52024;DHT22;38038;45.922;13.604;2022-09-09T16:45:51;20.10;99.90
52024;DHT22;38038;45.922;13.604;2022-09-09T16:48:17;20.20;99.90
52024;DHT22;38038;45.922;13.604;2022-09-09T16:50:42;20.30;99.90
52024;DHT22;38038;45.922;13.604;2022-09-09T16:53:08;20.30;99.90
52024;DHT22;38038;45.922;13.604;2022-09-09T16:55:40;20.30;99.90
52024;DHT22;38038;45.922;13.604;2022-09-09T16:58:07;20.30;99.90
52024;DHT22;38038;45.922;13.604;2022-09-09T17:00:35;20.30;99.90
52024;DHT22;38038;45.922;13.604;2022-09-09T17:03:01;20.30;99.90
52024;DHT22;38038;45.922;13.604;2022-09-09T17:05:28;20.30;99.90
52024;DHT22;38038;45.922;13.604;2022-09-09T17:07:54;20.30;99.90
52024;DHT22;38038;45.922;13.604;2022-09-09T17:10:23;20.30;99.90
52024;DHT22;38038;45.922;13.604;2022-09-09T17:12:49;20.30;99.90
52024;DHT22;38038;45.922;13.604;2022-09-09T17:15:15;20.20;99.90
52024;DHT22;38038;45.922;13.604;2022-09-09T17:17:41;20.20;99.90
52024;DHT22;38038;45.922;13.604;2022-09-09T17:20:10;20.20;99.90
52024;DHT22;38038;45.922;13.604;2022-09-09T17:22:37;20.20;99.90
52024;DHT22;38038;45.922;13.604;2022-09-09T17:25:03;20.10;99.90
52024;DHT22;38038;45.922;13.604;2022-09-09T17:27:29;20.10;99.90
52024;DHT22;38038;45.922;13.604;2022-09-09T17:29:57;20.00;99.90
52024;DHT22;38038;45.922;13.604;2022-09-09T17:32:23;19.90;99.90
52024;DHT22;38038;45.922;13.604;2022-09-09T17:34:48;19.90;99.90
52024;DHT22;38038;45.922;13.604;2022-09-09T17:37:14;19.80;99.90
52024;DHT22;38038;45.922;13.604;2022-09-09T17:39:40;19.90;99.90
52024;DHT22;38038;45.922;13.604;2022-09-09T17:42:05;19.80;99.90
52024;DHT22;38038;45.922;13.604;2022-09-09T17:44:33;19.70;99.90
